sensor_id;sensor_type;location;lat;lon;timestamp;P1;durP1;ratioP1;P2;durP2;ratioP2
69892;SDS011;61212;42.688;22.176;2022-12-18T00:01:19;13.80;;;8.43;;
69892;SDS011;61212;42.688;22.176;2022-12-18T00:03:45;13.90;;;7.97;;
69892;SDS011;61212;42.688;22.176;2022-12-18T00:06:12;12.70;;;7.70;;
69892;SDS011;61212;42.688;22.176;2022-12-18T00:08:39;13.80;;;8.88;;
69892;SDS011;61212;42.688;22.176;2022-12-18T00:11:10;14.07;;;8.45;;
69892;SDS011;61212;42.688;22.176;2022-12-18T00:13:36;13.88;;;7.65;;
69892;SDS011;61212;42.688;22.176;2022-12-18T00:16:03;14.75;;;8.82;;
69892;SDS011;61212;42.688;22.176;2022-12-18T00:18:29;19.35;;;10.70;;
69892;SDS011;61212;42.688;22.176;2022-12-18T00:20:58;19.40;;;9.93;;
69892;SDS011;61212;42.688;22.176;2022-12-18T00:23:25;15.30;;;9.55;;
69892;SDS011;61212;42.688;22.176;2022-12-18T00:25:51;17.52;;;10.13;;
69892;SDS011;61212;42.688;22.176;2022-12-18T00:28:17;18.25;;;10.48;;
69892;SDS011;61212;42.688;22.176;2022-12-18T00:30:43;13.70;;;8.52;;
69892;SDS011;61212;42.688;22.176;2022-12-18T00:33:09;13.95;;;8.65;;
69892;SDS011;61212;42.688;22.176;2022-12-18T00:35:35;13.90;;;8.70;;
69892;SDS011;61212;42.688;22.176;2022-12-18T00:38:01;14.65;;;9.07;;
69892;SDS011;61212;42.688;22.176;2022-12-18T00:40:27;15.77;;;7.65;;
69892;SDS011;61212;42.688;22.176;2022-12-18T00:42:54;15.25;;;8.40;;
69892;SDS011;61212;42.688;22.176;2022-12-18T00:45:26;13.85;;;7.68;;
69892;SDS011;61212;42.688;22.176;2022-12-18T00:47:53;12.18;;;7.05;;
69892;SDS011;61212;42.688;22.176;2022-12-18T00:50:19;11.98;;;7.75;;
69892;SDS011;61212;42.688;22.176;2022-12-18T00:52:45;12.82;;;7.10;;
69892;SDS011;61212;42.688;22.176;2022-12-18T00:55:12;21.33;;;10.90;;
69892;SDS011;61212;42.688;22.176;2022-12-18T00:57:38;12.50;;;6.50;;
69892;SDS011;61212;42.688;22.176;2022-12-18T01:00:05;10.82;;;6.97;;
69892;SDS011;61212;42.688;22.176;2022-12-18T01:02:31;14.13;;;7.18;;
69892;SDS011;61212;42.688;22.176;2022-12-18T01:04:57;11.07;;;6.55;;
69892;SDS011;61212;42.688;22.176;2022-12-18T01:07:23;11.35;;;7.22;;
69892;SDS011;61212;42.688;22.176;2022-12-18T01:09:49;12.18;;;7.45;;
69892;SDS011;61212;42.688;22.176;2022-12-18T01:12:15;9.30;;;5.53;;
69892;SDS011;61212;42.688;22.176;2022-12-18T01:14:42;13.05;;;7.55;;
69892;SDS011;61212;42.688;22.176;2022-12-18T01:17:08;14.13;;;7.70;;
69892;SDS011;61212;42.688;22.176;2022-12-18T01:19:34;15.57;;;8.52;;
69892;SDS011;61212;42.688;22.176;2022-12-18T01:22:00;16.20;;;9.20;;
69892;SDS011;61212;42.688;22.176;2022-12-18T01:24:26;15.48;;;9.35;;
69892;SDS011;61212;42.688;22.176;2022-12-18T01:26:52;16.38;;;8.55;;
69892;SDS011;61212;42.688;22.176;2022-12-18T01:29:18;15.60;;;9.18;;
69892;SDS011;61212;42.688;22.176;2022-12-18T01:31:45;17.15;;;8.80;;
69892;SDS011;61212;42.688;22.176;2022-12-18T01:34:11;16.85;;;9.63;;
69892;SDS011;61212;42.688;22.176;2022-12-18T01:36:37;17.40;;;10.73;;
69892;SDS011;61212;42.688;22.176;2022-12-18T01:39:10;18.75;;;10.55;;
69892;SDS011;61212;42.688;22.176;2022-12-18T01:41:37;18.25;;;10.73;;
69892;SDS011;61212;42.688;22.176;2022-12-18T01:47:06;19.92;;;10.85;;
69892;SDS011;61212;42.688;22.176;2022-12-18T01:49:32;23.83;;;13.43;;
69892;SDS011;61212;42.688;22.176;2022-12-18T01:51:58;22.33;;;12.75;;
69892;SDS011;61212;42.688;22.176;2022-12-18T01:54:24;21.92;;;13.07;;
69892;SDS011;61212;42.688;22.176;2022-12-18T01:56:53;21.92;;;12.82;;
69892;SDS011;61212;42.688;22.176;2022-12-18T01:59:19;27.02;;;14.60;;
69892;SDS011;61212;42.688;22.176;2022-12-18T02:01:45;25.83;;;15.32;;
69892;SDS011;61212;42.688;22.176;2022-12-18T02:06:48;28.55;;;14.80;;
69892;SDS011;61212;42.688;22.176;2022-12-18T02:09:20;29.85;;;15.77;;
69892;SDS011;61212;42.688;22.176;2022-12-18T02:16:57;28.92;;;15.98;;
69892;SDS011;61212;42.688;22.176;2022-12-18T02:19:39;31.88;;;18.40;;
69892;SDS011;61212;42.688;22.176;2022-12-18T02:22:10;31.67;;;17.83;;
69892;SDS011;61212;42.688;22.176;2022-12-18T02:27:09;37.22;;;19.17;;
69892;SDS011;61212;42.688;22.176;2022-12-18T02:29:51;35.92;;;19.63;;
69892;SDS011;61212;42.688;22.176;2022-12-18T02:32:22;35.83;;;18.95;;
69892;SDS011;61212;42.688;22.176;2022-12-18T02:34:50;32.15;;;17.80;;
69892;SDS011;61212;42.688;22.176;2022-12-18T02:37:17;40.67;;;20.08;;
69892;SDS011;61212;42.688;22.176;2022-12-18T02:39:44;31.25;;;18.38;;
69892;SDS011;61212;42.688;22.176;2022-12-18T02:42:12;37.83;;;19.70;;
69892;SDS011;61212;42.688;22.176;2022-12-18T02:44:42;39.00;;;20.83;;
69892;SDS011;61212;42.688;22.176;2022-12-18T02:47:10;34.10;;;19.17;;
69892;SDS011;61212;42.688;22.176;2022-12-18T02:54:47;35.70;;;19.98;;
69892;SDS011;61212;42.688;22.176;2022-12-18T02:57:31;41.55;;;21.95;;
69892;SDS011;61212;42.688;22.176;2022-12-18T03:00:12;37.35;;;20.27;;
69892;SDS011;61212;42.688;22.176;2022-12-18T03:02:48;34.72;;;18.42;;
69892;SDS011;61212;42.688;22.176;2022-12-18T03:05:25;37.90;;;19.25;;
69892;SDS011;61212;42.688;22.176;2022-12-18T03:10:29;39.53;;;21.42;;
69892;SDS011;61212;42.688;22.176;2022-12-18T03:12:59;38.13;;;20.02;;
69892;SDS011;61212;42.688;22.176;2022-12-18T03:15:36;37.92;;;21.35;;
69892;SDS011;61212;42.688;22.176;2022-12-18T03:18:08;40.85;;;22.98;;
69892;SDS011;61212;42.688;22.176;2022-12-18T03:20:36;48.15;;;24.08;;
69892;SDS011;61212;42.688;22.176;2022-12-18T03:23:06;39.38;;;20.77;;
69892;SDS011;61212;42.688;22.176;2022-12-18T03:25:33;41.10;;;22.10;;
69892;SDS011;61212;42.688;22.176;2022-12-18T03:28:00;42.17;;;23.77;;
69892;SDS011;61212;42.688;22.176;2022-12-18T03:30:28;38.20;;;21.25;;
69892;SDS011;61212;42.688;22.176;2022-12-18T03:33:01;43.20;;;22.88;;
69892;SDS011;61212;42.688;22.176;2022-12-18T03:35:29;42.05;;;23.52;;
69892;SDS011;61212;42.688;22.176;2022-12-18T03:37:56;43.70;;;25.33;;
69892;SDS011;61212;42.688;22.176;2022-12-18T03:40:24;48.55;;;23.45;;
69892;SDS011;61212;42.688;22.176;2022-12-18T03:42:53;44.78;;;23.70;;
69892;SDS011;61212;42.688;22.176;2022-12-18T03:45:27;40.78;;;22.15;;
69892;SDS011;61212;42.688;22.176;2022-12-18T03:48:01;40.30;;;22.08;;
69892;SDS011;61212;42.688;22.176;2022-12-18T03:55:39;43.83;;;22.00;;
69892;SDS011;61212;42.688;22.176;2022-12-18T03:58:06;38.05;;;20.25;;
69892;SDS011;61212;42.688;22.176;2022-12-18T04:00:33;39.50;;;20.77;;
69892;SDS011;61212;42.688;22.176;2022-12-18T04:02:59;35.00;;;18.92;;
69892;SDS011;61212;42.688;22.176;2022-12-18T04:05:26;37.63;;;20.52;;
69892;SDS011;61212;42.688;22.176;2022-12-18T04:07:53;37.35;;;20.58;;
69892;SDS011;61212;42.688;22.176;2022-12-18T04:10:20;36.00;;;19.70;;
69892;SDS011;61212;42.688;22.176;2022-12-18T04:12:46;36.28;;;20.15;;
69892;SDS011;61212;42.688;22.176;2022-12-18T04:15:13;40.00;;;21.58;;
69892;SDS011;61212;42.688;22.176;2022-12-18T04:17:39;38.88;;;20.00;;
69892;SDS011;61212;42.688;22.176;2022-12-18T04:20:09;43.42;;;21.50;;
69892;SDS011;61212;42.688;22.176;2022-12-18T04:22:35;41.72;;;21.77;;
69892;SDS011;61212;42.688;22.176;2022-12-18T04:25:01;42.40;;;21.48;;
69892;SDS011;61212;42.688;22.176;2022-12-18T04:27:27;40.28;;;20.75;;
69892;SDS011;61212;42.688;22.176;2022-12-18T04:29:54;45.97;;;22.77;;
69892;SDS011;61212;42.688;22.176;2022-12-18T04:32:20;40.15;;;21.83;;
69892;SDS011;61212;42.688;22.176;2022-12-18T04:34:46;39.50;;;21.27;;
69892;SDS011;61212;42.688;22.176;2022-12-18T04:37:12;42.17;;;21.55;;
69892;SDS011;61212;42.688;22.176;2022-12-18T04:39:38;41.35;;;21.17;;
69892;SDS011;61212;42.688;22.176;2022-12-18T04:42:05;44.63;;;22.25;;
69892;SDS011;61212;42.688;22.176;2022-12-18T04:44:31;42.88;;;23.63;;
69892;SDS011;61212;42.688;22.176;2022-12-18T04:46:57;44.60;;;22.42;;
69892;SDS011;61212;42.688;22.176;2022-12-18T04:49:23;45.53;;;24.95;;
69892;SDS011;61212;42.688;22.176;2022-12-18T04:51:49;40.78;;;22.05;;
69892;SDS011;61212;42.688;22.176;2022-12-18T04:54:16;39.25;;;20.95;;
69892;SDS011;61212;42.688;22.176;2022-12-18T04:56:42;41.20;;;22.42;;
69892;SDS011;61212;42.688;22.176;2022-12-18T04:59:08;41.88;;;22.23;;
69892;SDS011;61212;42.688;22.176;2022-12-18T05:01:34;41.67;;;20.95;;
69892;SDS011;61212;42.688;22.176;2022-12-18T05:04:01;41.22;;;23.05;;
69892;SDS011;61212;42.688;22.176;2022-12-18T05:06:27;42.35;;;22.58;;
69892;SDS011;61212;42.688;22.176;2022-12-18T05:08:53;43.63;;;22.30;;
69892;SDS011;61212;42.688;22.176;2022-12-18T05:11:19;46.17;;;23.58;;
69892;SDS011;61212;42.688;22.176;2022-12-18T05:13:45;49.92;;;24.83;;
69892;SDS011;61212;42.688;22.176;2022-12-18T05:16:12;45.33;;;23.83;;
69892;SDS011;61212;42.688;22.176;2022-12-18T05:18:38;42.20;;;22.10;;
69892;SDS011;61212;42.688;22.176;2022-12-18T05:21:04;46.05;;;24.25;;
69892;SDS011;61212;42.688;22.176;2022-12-18T05:23:31;46.55;;;24.13;;
69892;SDS011;61212;42.688;22.176;2022-12-18T05:25:58;45.10;;;25.10;;
69892;SDS011;61212;42.688;22.176;2022-12-18T05:28:24;48.22;;;24.73;;
69892;SDS011;61212;42.688;22.176;2022-12-18T05:30:53;46.25;;;24.02;;
69892;SDS011;61212;42.688;22.176;2022-12-18T05:33:20;48.45;;;25.13;;
69892;SDS011;61212;42.688;22.176;2022-12-18T05:35:53;49.10;;;24.15;;
69892;SDS011;61212;42.688;22.176;2022-12-18T05:38:19;49.88;;;24.75;;
69892;SDS011;61212;42.688;22.176;2022-12-18T05:40:47;41.05;;;23.42;;
69892;SDS011;61212;42.688;22.176;2022-12-18T05:43:13;54.70;;;23.73;;
69892;SDS011;61212;42.688;22.176;2022-12-18T05:45:39;43.70;;;23.13;;
69892;SDS011;61212;42.688;22.176;2022-12-18T05:48:06;51.38;;;23.75;;
69892;SDS011;61212;42.688;22.176;2022-12-18T05:50:35;44.50;;;24.33;;
69892;SDS011;61212;42.688;22.176;2022-12-18T05:53:02;46.30;;;24.25;;
69892;SDS011;61212;42.688;22.176;2022-12-18T05:55:28;47.22;;;24.95;;
69892;SDS011;61212;42.688;22.176;2022-12-18T05:57:54;49.05;;;24.08;;
69892;SDS011;61212;42.688;22.176;2022-12-18T06:00:20;48.13;;;23.38;;
69892;SDS011;61212;42.688;22.176;2022-12-18T06:02:47;55.63;;;26.52;;
69892;SDS011;61212;42.688;22.176;2022-12-18T06:05:13;50.80;;;25.85;;
69892;SDS011;61212;42.688;22.176;2022-12-18T06:07:39;45.88;;;24.70;;
69892;SDS011;61212;42.688;22.176;2022-12-18T06:10:05;51.95;;;26.88;;
69892;SDS011;61212;42.688;22.176;2022-12-18T06:12:31;49.20;;;27.55;;
69892;SDS011;61212;42.688;22.176;2022-12-18T06:15:00;56.95;;;29.33;;
69892;SDS011;61212;42.688;22.176;2022-12-18T06:17:32;51.67;;;26.23;;
69892;SDS011;61212;42.688;22.176;2022-12-18T06:19:59;49.83;;;25.83;;
69892;SDS011;61212;42.688;22.176;2022-12-18T06:22:26;56.55;;;27.48;;
69892;SDS011;61212;42.688;22.176;2022-12-18T06:24:52;51.28;;;25.02;;
69892;SDS011;61212;42.688;22.176;2022-12-18T06:27:18;52.15;;;26.83;;
69892;SDS011;61212;42.688;22.176;2022-12-18T06:29:44;49.40;;;26.73;;
69892;SDS011;61212;42.688;22.176;2022-12-18T06:32:10;46.58;;;24.23;;
69892;SDS011;61212;42.688;22.176;2022-12-18T06:34:37;50.17;;;26.30;;
69892;SDS011;61212;42.688;22.176;2022-12-18T06:37:03;56.15;;;30.23;;
69892;SDS011;61212;42.688;22.176;2022-12-18T06:39:29;57.22;;;28.50;;
69892;SDS011;61212;42.688;22.176;2022-12-18T06:41:55;55.00;;;26.85;;
69892;SDS011;61212;42.688;22.176;2022-12-18T06:44:22;57.75;;;30.35;;
69892;SDS011;61212;42.688;22.176;2022-12-18T06:46:48;59.15;;;30.35;;
69892;SDS011;61212;42.688;22.176;2022-12-18T06:49:14;59.33;;;30.42;;
69892;SDS011;61212;42.688;22.176;2022-12-18T06:51:41;62.17;;;31.88;;
69892;SDS011;61212;42.688;22.176;2022-12-18T06:54:07;60.40;;;29.77;;
69892;SDS011;61212;42.688;22.176;2022-12-18T06:56:33;60.22;;;31.38;;
69892;SDS011;61212;42.688;22.176;2022-12-18T06:58:59;67.97;;;34.90;;
69892;SDS011;61212;42.688;22.176;2022-12-18T07:01:25;54.88;;;25.55;;
69892;SDS011;61212;42.688;22.176;2022-12-18T07:03:53;51.90;;;26.95;;
69892;SDS011;61212;42.688;22.176;2022-12-18T07:06:20;68.60;;;29.35;;
69892;SDS011;61212;42.688;22.176;2022-12-18T07:08:46;54.70;;;28.45;;
69892;SDS011;61212;42.688;22.176;2022-12-18T07:11:13;60.90;;;30.95;;
69892;SDS011;61212;42.688;22.176;2022-12-18T07:13:39;60.80;;;33.05;;
69892;SDS011;61212;42.688;22.176;2022-12-18T07:18:31;64.82;;;32.55;;
69892;SDS011;61212;42.688;22.176;2022-12-18T07:20:58;55.58;;;27.35;;
69892;SDS011;61212;42.688;22.176;2022-12-18T07:23:24;50.53;;;27.20;;
69892;SDS011;61212;42.688;22.176;2022-12-18T07:25:50;59.70;;;32.13;;
69892;SDS011;61212;42.688;22.176;2022-12-18T07:28:16;59.00;;;31.60;;
69892;SDS011;61212;42.688;22.176;2022-12-18T07:30:42;53.67;;;27.40;;
69892;SDS011;61212;42.688;22.176;2022-12-18T07:33:08;59.15;;;29.85;;
69892;SDS011;61212;42.688;22.176;2022-12-18T07:35:34;56.25;;;28.48;;
69892;SDS011;61212;42.688;22.176;2022-12-18T07:38:00;49.88;;;25.17;;
69892;SDS011;61212;42.688;22.176;2022-12-18T07:40:26;53.30;;;26.77;;
69892;SDS011;61212;42.688;22.176;2022-12-18T07:42:52;54.30;;;27.17;;
69892;SDS011;61212;42.688;22.176;2022-12-18T07:45:19;56.50;;;29.73;;
69892;SDS011;61212;42.688;22.176;2022-12-18T07:47:45;56.30;;;28.02;;
69892;SDS011;61212;42.688;22.176;2022-12-18T07:50:11;53.42;;;27.55;;
69892;SDS011;61212;42.688;22.176;2022-12-18T07:52:38;79.68;;;40.78;;
69892;SDS011;61212;42.688;22.176;2022-12-18T07:55:04;58.78;;;31.42;;
69892;SDS011;61212;42.688;22.176;2022-12-18T07:57:30;55.53;;;29.58;;
69892;SDS011;61212;42.688;22.176;2022-12-18T07:59:57;54.58;;;27.02;;
69892;SDS011;61212;42.688;22.176;2022-12-18T08:02:23;57.33;;;27.67;;
69892;SDS011;61212;42.688;22.176;2022-12-18T08:04:49;54.92;;;26.73;;
69892;SDS011;61212;42.688;22.176;2022-12-18T08:07:15;54.17;;;25.77;;
69892;SDS011;61212;42.688;22.176;2022-12-18T08:09:41;51.70;;;25.38;;
69892;SDS011;61212;42.688;22.176;2022-12-18T08:12:07;60.38;;;30.90;;
69892;SDS011;61212;42.688;22.176;2022-12-18T08:14:33;78.72;;;41.83;;
69892;SDS011;61212;42.688;22.176;2022-12-18T08:16:59;66.55;;;34.47;;
69892;SDS011;61212;42.688;22.176;2022-12-18T08:19:25;75.38;;;36.78;;
69892;SDS011;61212;42.688;22.176;2022-12-18T08:21:51;59.97;;;31.75;;
69892;SDS011;61212;42.688;22.176;2022-12-18T08:24:17;59.53;;;31.40;;
69892;SDS011;61212;42.688;22.176;2022-12-18T08:26:44;75.75;;;42.05;;
69892;SDS011;61212;42.688;22.176;2022-12-18T08:29:10;95.05;;;54.40;;
69892;SDS011;61212;42.688;22.176;2022-12-18T08:31:36;68.70;;;35.92;;
69892;SDS011;61212;42.688;22.176;2022-12-18T08:34:02;106.10;;;48.08;;
69892;SDS011;61212;42.688;22.176;2022-12-18T08:36:28;77.70;;;40.03;;
69892;SDS011;61212;42.688;22.176;2022-12-18T08:38:54;72.65;;;38.40;;
69892;SDS011;61212;42.688;22.176;2022-12-18T08:41:20;68.85;;;37.70;;
69892;SDS011;61212;42.688;22.176;2022-12-18T08:43:47;76.57;;;36.78;;
69892;SDS011;61212;42.688;22.176;2022-12-18T08:46:41;62.15;;;32.40;;
69892;SDS011;61212;42.688;22.176;2022-12-18T08:49:08;55.88;;;29.75;;
69892;SDS011;61212;42.688;22.176;2022-12-18T08:51:34;64.63;;;33.17;;
69892;SDS011;61212;42.688;22.176;2022-12-18T08:54:01;69.28;;;34.67;;
69892;SDS011;61212;42.688;22.176;2022-12-18T08:56:27;67.97;;;36.35;;
69892;SDS011;61212;42.688;22.176;2022-12-18T08:58:53;56.55;;;29.65;;
69892;SDS011;61212;42.688;22.176;2022-12-18T09:01:20;71.80;;;35.65;;
69892;SDS011;61212;42.688;22.176;2022-12-18T09:03:46;59.17;;;28.27;;
69892;SDS011;61212;42.688;22.176;2022-12-18T09:06:13;62.72;;;32.17;;
69892;SDS011;61212;42.688;22.176;2022-12-18T09:08:40;56.45;;;29.45;;
69892;SDS011;61212;42.688;22.176;2022-12-18T09:11:14;91.03;;;36.60;;
69892;SDS011;61212;42.688;22.176;2022-12-18T09:13:40;74.18;;;30.92;;
69892;SDS011;61212;42.688;22.176;2022-12-18T09:16:06;63.38;;;36.28;;
69892;SDS011;61212;42.688;22.176;2022-12-18T09:18:32;61.63;;;30.65;;
69892;SDS011;61212;42.688;22.176;2022-12-18T09:20:58;56.78;;;30.77;;
69892;SDS011;61212;42.688;22.176;2022-12-18T09:23:24;54.90;;;29.52;;
69892;SDS011;61212;42.688;22.176;2022-12-18T09:25:51;58.78;;;30.60;;
69892;SDS011;61212;42.688;22.176;2022-12-18T09:28:17;51.70;;;27.30;;
69892;SDS011;61212;42.688;22.176;2022-12-18T09:30:47;56.67;;;28.48;;
69892;SDS011;61212;42.688;22.176;2022-12-18T09:33:14;53.28;;;29.15;;
69892;SDS011;61212;42.688;22.176;2022-12-18T09:35:41;56.90;;;28.38;;
69892;SDS011;61212;42.688;22.176;2022-12-18T09:38:08;56.80;;;29.42;;
69892;SDS011;61212;42.688;22.176;2022-12-18T09:40:36;49.40;;;25.13;;
69892;SDS011;61212;42.688;22.176;2022-12-18T09:43:05;57.42;;;33.13;;
69892;SDS011;61212;42.688;22.176;2022-12-18T09:45:35;48.08;;;24.05;;
69892;SDS011;61212;42.688;22.176;2022-12-18T09:48:05;54.85;;;25.98;;
69892;SDS011;61212;42.688;22.176;2022-12-18T09:50:34;58.47;;;29.38;;
69892;SDS011;61212;42.688;22.176;2022-12-18T09:53:05;68.00;;;31.60;;
69892;SDS011;61212;42.688;22.176;2022-12-18T09:55:39;66.82;;;33.50;;
69892;SDS011;61212;42.688;22.176;2022-12-18T10:00:35;67.85;;;31.10;;
69892;SDS011;61212;42.688;22.176;2022-12-18T10:03:11;43.58;;;20.73;;
69892;SDS011;61212;42.688;22.176;2022-12-18T10:15:52;37.97;;;21.15;;
69892;SDS011;61212;42.688;22.176;2022-12-18T10:18:26;41.35;;;21.95;;
69892;SDS011;61212;42.688;22.176;2022-12-18T10:20:56;214.52;;;77.53;;
69892;SDS011;61212;42.688;22.176;2022-12-18T10:23:27;82.47;;;33.67;;
69892;SDS011;61212;42.688;22.176;2022-12-18T10:26:04;49.72;;;24.13;;
69892;SDS011;61212;42.688;22.176;2022-12-18T10:28:31;45.35;;;22.73;;
69892;SDS011;61212;42.688;22.176;2022-12-18T10:30:58;42.20;;;21.25;;
69892;SDS011;61212;42.688;22.176;2022-12-18T10:33:27;46.15;;;21.70;;
69892;SDS011;61212;42.688;22.176;2022-12-18T10:35:53;38.65;;;20.50;;
69892;SDS011;61212;42.688;22.176;2022-12-18T10:43:15;37.45;;;18.17;;
69892;SDS011;61212;42.688;22.176;2022-12-18T10:45:57;30.75;;;14.52;;
69892;SDS011;61212;42.688;22.176;2022-12-18T10:48:24;51.13;;;30.75;;
69892;SDS011;61212;42.688;22.176;2022-12-18T10:50:50;46.45;;;26.15;;
69892;SDS011;61212;42.688;22.176;2022-12-18T10:53:24;38.63;;;20.02;;
69892;SDS011;61212;42.688;22.176;2022-12-18T10:58:21;56.53;;;26.05;;
69892;SDS011;61212;42.688;22.176;2022-12-18T11:03:39;39.83;;;22.50;;
69892;SDS011;61212;42.688;22.176;2022-12-18T11:08:32;57.90;;;27.73;;
69892;SDS011;61212;42.688;22.176;2022-12-18T11:10:58;76.85;;;33.47;;
69892;SDS011;61212;42.688;22.176;2022-12-18T11:13:24;60.60;;;28.20;;
69892;SDS011;61212;42.688;22.176;2022-12-18T11:15:51;62.83;;;29.02;;
69892;SDS011;61212;42.688;22.176;2022-12-18T11:20:50;55.85;;;29.30;;
69892;SDS011;61212;42.688;22.176;2022-12-18T11:23:16;47.17;;;25.60;;
69892;SDS011;61212;42.688;22.176;2022-12-18T11:26:18;85.07;;;38.78;;
69892;SDS011;61212;42.688;22.176;2022-12-18T11:28:38;61.75;;;33.35;;
69892;SDS011;61212;42.688;22.176;2022-12-18T11:33:57;74.88;;;40.13;;
69892;SDS011;61212;42.688;22.176;2022-12-18T11:36:26;80.82;;;36.67;;
69892;SDS011;61212;42.688;22.176;2022-12-18T11:38:54;108.85;;;41.70;;
69892;SDS011;61212;42.688;22.176;2022-12-18T11:41:26;69.45;;;31.52;;
69892;SDS011;61212;42.688;22.176;2022-12-18T11:44:32;112.15;;;49.70;;
69892;SDS011;61212;42.688;22.176;2022-12-18T11:47:03;122.32;;;59.63;;
69892;SDS011;61212;42.688;22.176;2022-12-18T11:49:34;61.83;;;30.92;;
69892;SDS011;61212;42.688;22.176;2022-12-18T11:52:15;91.20;;;38.28;;
69892;SDS011;61212;42.688;22.176;2022-12-18T11:54:42;82.85;;;34.72;;
69892;SDS011;61212;42.688;22.176;2022-12-18T11:57:18;48.75;;;22.88;;
69892;SDS011;61212;42.688;22.176;2022-12-18T12:07:45;86.60;;;34.20;;
69892;SDS011;61212;42.688;22.176;2022-12-18T12:18:02;49.33;;;23.30;;
69892;SDS011;61212;42.688;22.176;2022-12-18T12:23:02;62.92;;;30.02;;
69892;SDS011;61212;42.688;22.176;2022-12-18T12:25:37;45.80;;;22.35;;
69892;SDS011;61212;42.688;22.176;2022-12-18T12:35:44;43.08;;;20.63;;
69892;SDS011;61212;42.688;22.176;2022-12-18T12:38:23;36.55;;;20.13;;
69892;SDS011;61212;42.688;22.176;2022-12-18T12:40:57;37.05;;;18.65;;
69892;SDS011;61212;42.688;22.176;2022-12-18T12:45:55;37.38;;;19.45;;
69892;SDS011;61212;42.688;22.176;2022-12-18T12:50:48;44.00;;;22.95;;
69892;SDS011;61212;42.688;22.176;2022-12-18T12:53:19;49.67;;;22.38;;
69892;SDS011;61212;42.688;22.176;2022-12-18T12:55:47;40.25;;;20.33;;
69892;SDS011;61212;42.688;22.176;2022-12-18T13:03:34;38.65;;;20.88;;
69892;SDS011;61212;42.688;22.176;2022-12-18T13:06:28;48.05;;;25.10;;
69892;SDS011;61212;42.688;22.176;2022-12-18T13:08:56;60.72;;;31.92;;
69892;SDS011;61212;42.688;22.176;2022-12-18T13:11:30;42.63;;;22.52;;
69892;SDS011;61212;42.688;22.176;2022-12-18T13:14:23;41.65;;;21.70;;
69892;SDS011;61212;42.688;22.176;2022-12-18T13:16:49;36.17;;;17.65;;
69892;SDS011;61212;42.688;22.176;2022-12-18T13:19:22;45.80;;;24.23;;
69892;SDS011;61212;42.688;22.176;2022-12-18T13:21:54;42.88;;;24.00;;
69892;SDS011;61212;42.688;22.176;2022-12-18T13:26:47;59.85;;;29.48;;
69892;SDS011;61212;42.688;22.176;2022-12-18T13:29:14;45.05;;;23.33;;
69892;SDS011;61212;42.688;22.176;2022-12-18T13:32:00;53.53;;;28.42;;
69892;SDS011;61212;42.688;22.176;2022-12-18T13:34:27;40.88;;;21.05;;
69892;SDS011;61212;42.688;22.176;2022-12-18T13:37:33;45.67;;;24.10;;
69892;SDS011;61212;42.688;22.176;2022-12-18T13:39:43;49.22;;;26.63;;
69892;SDS011;61212;42.688;22.176;2022-12-18T13:44:55;51.35;;;25.38;;
69892;SDS011;61212;42.688;22.176;2022-12-18T13:47:26;50.30;;;25.45;;
69892;SDS011;61212;42.688;22.176;2022-12-18T13:49:53;46.55;;;24.52;;
69892;SDS011;61212;42.688;22.176;2022-12-18T13:52:24;53.80;;;27.88;;
69892;SDS011;61212;42.688;22.176;2022-12-18T13:54:52;51.88;;;28.23;;
69892;SDS011;61212;42.688;22.176;2022-12-18T13:57:29;50.88;;;25.77;;
69892;SDS011;61212;42.688;22.176;2022-12-18T13:59:55;53.67;;;26.90;;
69892;SDS011;61212;42.688;22.176;2022-12-18T14:02:23;52.65;;;24.83;;
69892;SDS011;61212;42.688;22.176;2022-12-18T14:04:49;49.80;;;24.17;;
69892;SDS011;61212;42.688;22.176;2022-12-18T14:07:22;61.83;;;31.20;;
69892;SDS011;61212;42.688;22.176;2022-12-18T14:09:53;48.80;;;25.35;;
69892;SDS011;61212;42.688;22.176;2022-12-18T14:12:29;62.25;;;28.38;;
69892;SDS011;61212;42.688;22.176;2022-12-18T14:17:50;64.22;;;32.45;;
69892;SDS011;61212;42.688;22.176;2022-12-18T14:20:17;63.40;;;32.10;;
69892;SDS011;61212;42.688;22.176;2022-12-18T14:22:44;55.75;;;27.85;;
69892;SDS011;61212;42.688;22.176;2022-12-18T14:27:38;57.53;;;28.27;;
69892;SDS011;61212;42.688;22.176;2022-12-18T14:30:30;46.63;;;22.00;;
69892;SDS011;61212;42.688;22.176;2022-12-18T14:35:36;53.05;;;24.50;;
69892;SDS011;61212;42.688;22.176;2022-12-18T14:38:37;52.42;;;26.42;;
69892;SDS011;61212;42.688;22.176;2022-12-18T14:41:17;55.33;;;24.02;;
69892;SDS011;61212;42.688;22.176;2022-12-18T14:43:43;56.05;;;27.95;;
69892;SDS011;61212;42.688;22.176;2022-12-18T14:48:54;55.10;;;27.15;;
69892;SDS011;61212;42.688;22.176;2022-12-18T14:51:22;54.92;;;25.83;;
69892;SDS011;61212;42.688;22.176;2022-12-18T14:53:55;67.22;;;30.77;;
69892;SDS011;61212;42.688;22.176;2022-12-18T14:56:29;72.95;;;35.65;;
69892;SDS011;61212;42.688;22.176;2022-12-18T14:59:00;81.05;;;52.80;;
69892;SDS011;61212;42.688;22.176;2022-12-18T15:01:35;51.85;;;25.88;;
69892;SDS011;61212;42.688;22.176;2022-12-18T15:04:02;57.10;;;27.83;;
69892;SDS011;61212;42.688;22.176;2022-12-18T15:06:30;64.68;;;28.50;;
69892;SDS011;61212;42.688;22.176;2022-12-18T15:08:57;47.33;;;23.55;;
69892;SDS011;61212;42.688;22.176;2022-12-18T15:11:27;46.50;;;23.45;;
69892;SDS011;61212;42.688;22.176;2022-12-18T15:13:53;45.53;;;21.13;;
69892;SDS011;61212;42.688;22.176;2022-12-18T15:16:35;48.50;;;23.40;;
69892;SDS011;61212;42.688;22.176;2022-12-18T15:19:01;58.40;;;29.10;;
69892;SDS011;61212;42.688;22.176;2022-12-18T15:21:27;45.00;;;22.00;;
69892;SDS011;61212;42.688;22.176;2022-12-18T15:23:56;59.65;;;33.00;;
69892;SDS011;61212;42.688;22.176;2022-12-18T15:26:22;47.67;;;22.92;;
69892;SDS011;61212;42.688;22.176;2022-12-18T15:28:49;52.60;;;27.85;;
69892;SDS011;61212;42.688;22.176;2022-12-18T15:36:15;48.40;;;24.17;;
69892;SDS011;61212;42.688;22.176;2022-12-18T15:38:46;43.67;;;20.42;;
69892;SDS011;61212;42.688;22.176;2022-12-18T15:41:15;41.72;;;22.45;;
69892;SDS011;61212;42.688;22.176;2022-12-18T15:43:42;69.50;;;33.80;;
69892;SDS011;61212;42.688;22.176;2022-12-18T15:48:44;49.80;;;26.13;;
69892;SDS011;61212;42.688;22.176;2022-12-18T15:51:21;58.75;;;26.63;;
69892;SDS011;61212;42.688;22.176;2022-12-18T15:53:48;57.75;;;26.73;;
69892;SDS011;61212;42.688;22.176;2022-12-18T15:56:16;69.60;;;34.85;;
69892;SDS011;61212;42.688;22.176;2022-12-18T15:59:01;139.70;;;77.13;;
69892;SDS011;61212;42.688;22.176;2022-12-18T16:01:29;52.10;;;26.98;;
69892;SDS011;61212;42.688;22.176;2022-12-18T16:03:59;53.10;;;26.05;;
69892;SDS011;61212;42.688;22.176;2022-12-18T16:06:25;45.55;;;22.70;;
69892;SDS011;61212;42.688;22.176;2022-12-18T16:08:51;57.67;;;29.20;;
69892;SDS011;61212;42.688;22.176;2022-12-18T16:14:15;145.23;;;75.47;;
69892;SDS011;61212;42.688;22.176;2022-12-18T16:16:43;47.13;;;24.58;;
69892;SDS011;61212;42.688;22.176;2022-12-18T16:19:09;41.17;;;22.25;;
69892;SDS011;61212;42.688;22.176;2022-12-18T16:21:35;63.08;;;34.72;;